Scopus, Missouri
Current Conditions -  °F | °C
As of 8:53 PM on Wednesday 22 Oct 2014 (Local Time) from KCGI Reporting Station
Clear Clear  
Wind Chill: 49°   Ceiling: Unl
Heat Index: 49°   Visibility: 10mi
Dew Point: 42°   Wind: 0mph
Humidity: 77%   Direction: NA
Pressure: 30.22"   Gusts: NA
Location:  37.2968°N, 89.9579°W
Report Text: KCGI 230153Z AUTO 00000KT 10SM CLR 09/06 A3022 RMK AO2 SLP233 T00940056 TSNO
Loading
Personal Weather Stations






























Interactive Weather Map
Tropical Storm Tracking
New forecast layout! Learn more

10-Day Weather Forecast

Advertisements
Track Severe Weather on mobile